createdAt,value
2018-07-20T00:01:26.019Z,82.20
2018-07-20T00:03:53.547Z,83.20
2018-07-20T00:06:21.037Z,84.20
2018-07-20T00:08:48.875Z,82.30
2018-07-20T00:11:16.413Z,88.10
2018-07-20T00:13:43.955Z,87.60
2018-07-20T00:16:12.285Z,85.90
2018-07-20T00:18:40.981Z,84.70
2018-07-20T00:21:08.843Z,83.90
2018-07-20T00:23:37.038Z,83.70
2018-07-20T00:26:05.446Z,85.30
2018-07-20T00:28:33.398Z,86.90
2018-07-20T00:31:01.275Z,84.10
2018-07-20T00:33:28.779Z,83.80
2018-07-20T00:35:56.293Z,84.30
2018-07-20T00:38:23.844Z,84.80
2018-07-20T00:40:51.375Z,84.70
2018-07-20T00:43:19.619Z,84.30
2018-07-20T00:45:47.485Z,85.30
2018-07-20T00:48:15.584Z,84.90
2018-07-20T00:50:43.072Z,84.50
2018-07-20T00:53:10.591Z,86.00
2018-07-20T00:55:38.115Z,85.40
2018-07-20T00:58:06.211Z,86.10
2018-07-20T01:00:34.579Z,84.90
2018-07-20T01:03:02.077Z,85.70
2018-07-20T01:05:29.575Z,86.60
2018-07-20T01:07:57.797Z,87.30
2018-07-20T01:10:25.914Z,87.30
2018-07-20T01:12:53.443Z,86.00
2018-07-20T01:15:21.302Z,86.20
2018-07-20T01:17:49.526Z,85.90
2018-07-20T01:20:17.460Z,86.40
2018-07-20T01:22:44.958Z,86.40
2018-07-20T01:25:12.835Z,86.00
2018-07-20T01:27:40.402Z,85.40
2018-07-20T01:30:08.482Z,86.50
2018-07-20T01:32:35.987Z,85.20
2018-07-20T01:35:03.523Z,84.90
2018-07-20T01:37:31.631Z,85.20
2018-07-20T01:39:59.800Z,86.10
2018-07-20T01:42:27.302Z,85.40
2018-07-20T01:44:55.163Z,85.70
2018-07-20T01:47:24.184Z,86.50
2018-07-20T01:49:51.705Z,85.30
2018-07-20T01:52:19.760Z,84.50
2018-07-20T01:54:47.270Z,84.80
2018-07-20T01:57:15.142Z,84.40
2018-07-20T01:59:43.203Z,84.10
2018-07-20T02:02:11.463Z,84.50
2018-07-20T02:04:39.642Z,84.10
2018-07-20T02:07:07.124Z,84.60
2018-07-20T02:09:34.627Z,84.40
2018-07-20T02:12:02.751Z,83.50
2018-07-20T02:16:58.397Z,83.90
2018-07-20T02:19:26.286Z,83.50
2018-07-20T02:21:53.775Z,83.90
2018-07-20T02:24:21.573Z,83.50
2018-07-20T02:26:49.070Z,83.70
2018-07-20T02:29:16.938Z,83.50
2018-07-20T02:31:44.455Z,83.20
2018-07-20T02:34:11.966Z,83.10
2018-07-20T02:36:40.179Z,82.90
2018-07-20T02:39:09.974Z,82.70
2018-07-20T02:41:37.677Z,82.60
2018-07-20T02:44:06.267Z,84.50
2018-07-20T02:46:33.806Z,83.30
2018-07-20T02:49:01.705Z,82.80
2018-07-20T02:51:29.205Z,82.90
2018-07-20T02:53:56.717Z,83.00
2018-07-20T02:56:24.238Z,83.10
2018-07-20T02:58:52.091Z,82.80
2018-07-20T03:03:47.651Z,83.40
2018-07-20T03:06:15.163Z,83.50
2018-07-20T03:08:42.701Z,82.60
2018-07-20T03:11:10.766Z,82.90
2018-07-20T03:13:38.251Z,82.70
2018-07-20T03:16:06.120Z,82.80
2018-07-20T03:18:34.205Z,83.10
2018-07-20T03:21:02.257Z,82.40
2018-07-20T03:23:30.233Z,83.10
2018-07-20T03:25:57.823Z,82.60
2018-07-20T03:28:25.843Z,83.00
2018-07-20T03:30:53.385Z,84.50
2018-07-20T03:33:20.886Z,82.80
2018-07-20T03:35:48.439Z,82.60
2018-07-20T03:38:16.251Z,82.90
2018-07-20T03:40:44.195Z,82.50
2018-07-20T03:43:11.687Z,82.40
2018-07-20T03:45:39.915Z,82.50
2018-07-20T03:48:07.418Z,82.80
2018-07-20T03:50:34.999Z,82.40
2018-07-20T03:53:02.547Z,82.50
2018-07-20T03:55:30.483Z,82.50
2018-07-20T03:57:58.392Z,82.40
2018-07-20T04:00:26.739Z,82.50
2018-07-20T04:02:55.219Z,83.10
2018-07-20T04:05:22.717Z,82.50
2018-07-20T04:07:50.663Z,83.30
2018-07-20T04:10:18.975Z,83.10
2018-07-20T04:12:47.082Z,82.50
2018-07-20T04:15:15.141Z,82.80
2018-07-20T04:17:44.211Z,82.20
2018-07-20T04:22:40.819Z,81.90
2018-07-20T04:25:08.790Z,82.80
2018-07-20T04:27:36.564Z,82.00
2018-07-20T04:30:08.330Z,82.20
2018-07-20T04:32:35.866Z,82.00
2018-07-20T04:35:03.486Z,82.20
2018-07-20T04:37:31.080Z,82.20
2018-07-20T04:39:58.922Z,82.20
2018-07-20T04:42:26.451Z,81.80
2018-07-20T04:44:54.483Z,81.90
2018-07-20T04:47:22.007Z,81.90
2018-07-20T04:49:49.528Z,81.40
2018-07-20T04:52:17.046Z,81.50
2018-07-20T04:54:44.971Z,81.30
2018-07-20T04:57:13.466Z,81.10
2018-07-20T04:59:41.474Z,80.70
2018-07-20T05:02:09.422Z,80.10
2018-07-20T05:04:37.312Z,79.80
2018-07-20T05:07:05.299Z,79.60
2018-07-20T05:09:33.286Z,79.60
2018-07-20T05:12:00.806Z,79.50
2018-07-20T05:14:28.740Z,78.70
2018-07-20T05:16:56.632Z,77.60
2018-07-20T05:19:24.694Z,77.70
2018-07-20T05:21:52.187Z,77.50
2018-07-20T05:24:20.224Z,77.40
2018-07-20T05:26:48.310Z,76.50
2018-07-20T05:29:16.096Z,77.10
2018-07-20T05:31:43.650Z,76.80
2018-07-20T05:34:11.150Z,77.10
2018-07-20T05:36:39.708Z,76.50
2018-07-20T05:39:08.651Z,76.20
2018-07-20T05:41:36.860Z,76.00
2018-07-20T05:44:05.041Z,76.70
2018-07-20T05:48:59.954Z,75.40
2018-07-20T05:51:27.518Z,75.40
2018-07-20T05:53:55.914Z,75.10
2018-07-20T05:56:23.784Z,74.40
2018-07-20T05:58:51.918Z,74.50
2018-07-20T06:01:20.211Z,74.20
2018-07-20T06:06:15.505Z,74.80
2018-07-20T06:08:43.343Z,74.10
2018-07-20T06:11:12.683Z,73.50
2018-07-20T06:13:40.192Z,72.90
2018-07-20T06:16:07.748Z,72.90
2018-07-20T06:21:04.637Z,72.00
2018-07-20T06:28:29.112Z,71.20
2018-07-20T06:30:57.451Z,71.00
2018-07-20T06:33:25.469Z,70.70
2018-07-20T06:35:54.280Z,70.40
2018-07-20T06:38:21.850Z,70.30
2018-07-20T06:40:49.689Z,68.70
2018-07-20T06:43:17.653Z,68.70
2018-07-20T06:45:45.631Z,69.30
2018-07-20T06:48:13.760Z,69.80
2018-07-20T06:50:41.292Z,68.20
2018-07-20T06:53:09.161Z,69.20
2018-07-20T06:55:36.666Z,68.70
2018-07-20T06:58:04.738Z,68.60
2018-07-20T07:00:32.620Z,68.10
2018-07-20T07:03:00.109Z,67.80
2018-07-20T07:05:28.151Z,66.30
2018-07-20T07:07:55.669Z,67.80
2018-07-20T07:10:23.151Z,67.70
2018-07-20T07:12:50.680Z,67.10
2018-07-20T07:15:18.504Z,67.20
2018-07-20T07:17:47.020Z,66.90
2018-07-20T07:20:15.092Z,66.50
2018-07-20T07:22:42.591Z,66.70
2018-07-20T07:25:10.653Z,66.90
2018-07-20T07:27:38.154Z,66.70
2018-07-20T07:30:06.288Z,65.40
2018-07-20T07:32:35.210Z,65.30
2018-07-20T07:35:02.757Z,65.40
2018-07-20T07:37:30.313Z,64.80
2018-07-20T07:39:58.396Z,64.90
2018-07-20T07:42:25.940Z,64.80
2018-07-20T07:44:53.795Z,64.80
2018-07-20T07:47:21.566Z,63.40
2018-07-20T07:49:49.406Z,64.50
2018-07-20T07:52:16.918Z,63.60
2018-07-20T07:54:44.500Z,63.00
2018-07-20T07:57:12.635Z,62.10
2018-07-20T07:59:40.805Z,63.50
2018-07-20T08:02:08.948Z,62.90
2018-07-20T08:04:36.454Z,62.80
2018-07-20T08:07:03.967Z,61.70
2018-07-20T08:09:31.488Z,61.30
2018-07-20T08:11:59.002Z,60.90
2018-07-20T08:14:26.589Z,61.50
2018-07-20T08:16:55.189Z,60.90
2018-07-20T08:19:23.061Z,60.50
2018-07-20T08:21:51.054Z,59.10
2018-07-20T08:24:18.923Z,60.20
2018-07-20T08:26:46.455Z,59.60
2018-07-20T08:29:14.419Z,59.10
2018-07-20T08:31:42.374Z,59.20
2018-07-20T08:34:09.879Z,58.50
2018-07-20T08:36:37.990Z,59.00
2018-07-20T08:39:07.525Z,58.50
2018-07-20T08:41:35.260Z,57.60
2018-07-20T08:44:03.928Z,58.20
2018-07-20T08:46:32.645Z,58.00
2018-07-20T08:49:00.181Z,56.80
2018-07-20T08:51:27.998Z,57.60
2018-07-20T08:53:55.850Z,55.90
2018-07-20T08:56:23.939Z,57.40
2018-07-20T08:58:52.038Z,56.20
2018-07-20T09:01:19.951Z,55.30
2018-07-20T09:06:14.931Z,55.10
2018-07-20T09:08:42.475Z,54.80
2018-07-20T09:11:10.012Z,54.60
2018-07-20T09:13:37.664Z,54.40
2018-07-20T09:16:05.213Z,54.20
2018-07-20T09:18:33.396Z,54.50
2018-07-20T09:21:01.670Z,54.60
2018-07-20T09:23:29.558Z,53.00
2018-07-20T09:25:57.091Z,53.60
2018-07-20T09:28:25.135Z,53.70
2018-07-20T09:30:52.631Z,53.00
2018-07-20T09:33:20.543Z,52.10
2018-07-20T09:35:48.507Z,50.10
2018-07-20T09:38:16.569Z,49.00
2018-07-20T09:40:44.103Z,49.90
2018-07-20T09:43:12.502Z,48.40
2018-07-20T09:45:40.523Z,49.40
2018-07-20T09:48:08.043Z,49.10
2018-07-20T09:50:35.583Z,45.20
2018-07-20T09:53:03.969Z,48.40
2018-07-20T09:55:31.476Z,43.60
2018-07-20T09:57:59.455Z,45.20
2018-07-20T10:00:32.700Z,41.80
2018-07-20T10:03:00.251Z,42.00
2018-07-20T10:05:27.743Z,41.70
2018-07-20T10:07:55.289Z,40.60
2018-07-20T10:10:22.918Z,40.50
2018-07-20T10:15:17.875Z,42.50
2018-07-20T10:17:46.411Z,40.00
2018-07-20T10:20:14.327Z,38.00
2018-07-20T10:22:41.816Z,37.40
2018-07-20T10:25:09.822Z,38.60
2018-07-20T10:27:37.356Z,36.60
2018-07-20T10:30:05.979Z,37.70
2018-07-20T10:32:33.884Z,36.50
2018-07-20T10:35:02.106Z,37.00
2018-07-20T10:37:29.606Z,37.50
2018-07-20T10:39:57.143Z,36.90
2018-07-20T10:42:25.886Z,37.20
2018-07-20T10:44:53.922Z,36.10
2018-07-20T10:47:21.427Z,36.50
2018-07-20T10:49:49.630Z,37.00
2018-07-20T10:52:17.475Z,36.60
2018-07-20T10:54:45.973Z,38.20
2018-07-20T10:57:13.516Z,35.70
2018-07-20T10:59:41.470Z,33.30
2018-07-20T11:04:36.466Z,33.80
2018-07-20T11:07:04.013Z,34.90
2018-07-20T11:09:31.526Z,35.10
2018-07-20T11:11:59.120Z,34.20
2018-07-20T11:14:26.659Z,35.30
2018-07-20T11:16:54.708Z,35.80
2018-07-20T11:19:22.789Z,34.00
2018-07-20T11:21:51.111Z,34.00
2018-07-20T11:24:18.936Z,33.30
2018-07-20T11:29:14.560Z,33.70
2018-07-20T11:31:42.068Z,33.40
2018-07-20T11:34:09.590Z,33.20
2018-07-20T11:36:37.785Z,33.10
2018-07-20T11:39:07.172Z,33.50
2018-07-20T11:41:36.619Z,34.00
2018-07-20T11:44:04.964Z,33.70
2018-07-20T11:46:32.828Z,34.00
2018-07-20T11:49:00.846Z,34.20
2018-07-20T11:51:28.758Z,34.70
2018-07-20T11:53:56.628Z,34.00
2018-07-20T11:56:24.390Z,33.40
2018-07-20T11:58:52.550Z,33.40
2018-07-20T12:01:20.108Z,34.20
2018-07-20T12:06:15.092Z,33.90
2018-07-20T12:08:42.653Z,33.40
2018-07-20T12:11:10.253Z,32.70
2018-07-20T12:16:05.540Z,32.40
2018-07-20T12:18:33.648Z,33.90
2018-07-20T12:23:29.426Z,33.40
2018-07-20T12:25:57.405Z,33.20
2018-07-20T12:28:25.544Z,33.00
2018-07-20T12:33:20.476Z,33.40
2018-07-20T12:35:48.005Z,33.10
2018-07-20T12:38:15.848Z,33.10
2018-07-20T12:40:43.420Z,32.90
2018-07-20T12:43:11.632Z,32.50
2018-07-20T12:45:40.340Z,33.60
2018-07-20T12:50:35.875Z,32.80
2018-07-20T12:57:59.091Z,32.70
2018-07-20T13:00:26.598Z,32.50
2018-07-20T13:02:54.098Z,32.60
2018-07-20T13:05:21.643Z,32.50
2018-07-20T13:07:49.463Z,32.70
2018-07-20T13:10:16.971Z,32.10
2018-07-20T13:12:44.459Z,32.30
2018-07-20T13:15:12.955Z,32.60
2018-07-20T13:20:09.482Z,32.60
2018-07-20T13:22:37.060Z,32.50
2018-07-20T13:25:05.155Z,32.00
2018-07-20T13:30:00.592Z,32.40
2018-07-20T13:37:23.680Z,32.60
2018-07-20T13:39:51.251Z,33.10
2018-07-20T13:42:19.587Z,33.50
2018-07-20T13:44:47.432Z,32.80
2018-07-20T13:47:14.934Z,33.30
2018-07-20T13:49:42.844Z,33.20
2018-07-20T13:54:38.620Z,32.70
2018-07-20T13:57:06.135Z,32.80
2018-07-20T13:59:36.071Z,32.40
2018-07-20T14:04:32.978Z,32.20
2018-07-20T14:07:02.043Z,30.90
2018-07-20T14:09:29.595Z,31.60
2018-07-20T14:11:57.881Z,31.30
2018-07-20T14:16:53.448Z,29.00
2018-07-20T14:19:21.368Z,28.70
2018-07-20T14:21:48.944Z,28.80
2018-07-20T14:24:16.764Z,28.50
2018-07-20T14:26:44.875Z,28.70
2018-07-20T14:29:12.672Z,28.40
2018-07-20T14:31:40.682Z,27.50
2018-07-20T14:34:08.626Z,27.00
2018-07-20T14:36:36.155Z,26.30
2018-07-20T14:39:07.766Z,25.90
2018-07-20T14:41:35.563Z,25.90
2018-07-20T14:44:03.450Z,26.50
2018-07-20T14:46:31.412Z,27.40
2018-07-20T14:48:58.918Z,25.60
2018-07-20T14:51:26.424Z,26.10
2018-07-20T14:53:53.958Z,26.40
2018-07-20T14:56:21.958Z,26.40
2018-07-20T14:58:50.019Z,26.30
2018-07-20T15:01:18.378Z,26.00
2018-07-20T15:03:46.349Z,26.70
2018-07-20T15:06:14.309Z,26.70
2018-07-20T15:08:41.949Z,26.30
2018-07-20T15:11:09.495Z,26.20
2018-07-20T15:13:37.838Z,26.80
2018-07-20T15:16:05.640Z,26.60
2018-07-20T15:18:34.664Z,26.20
2018-07-20T15:21:02.994Z,25.00
2018-07-20T15:25:58.431Z,25.10
2018-07-20T15:28:26.728Z,25.60
2018-07-20T15:30:54.580Z,25.90
2018-07-20T15:33:22.601Z,25.20
2018-07-20T15:35:50.954Z,24.60
2018-07-20T15:38:18.914Z,25.10
2018-07-20T15:40:46.836Z,24.50
2018-07-20T15:43:14.863Z,25.50
2018-07-20T15:45:51.881Z,24.70
2018-07-20T15:48:10.359Z,24.50
2018-07-20T15:50:38.175Z,24.40
2018-07-20T15:55:33.316Z,24.60
2018-07-20T15:58:01.216Z,25.00
2018-07-20T16:00:29.348Z,25.00
2018-07-20T16:02:56.883Z,26.00
2018-07-20T16:05:24.441Z,25.70
2018-07-20T16:07:52.452Z,26.30
2018-07-20T16:10:20.319Z,26.50
2018-07-20T16:12:48.512Z,26.30
2018-07-20T16:17:44.564Z,26.40
2018-07-20T16:20:12.453Z,26.40
2018-07-20T16:22:40.019Z,26.60
2018-07-20T16:25:08.172Z,26.40
2018-07-20T16:27:36.051Z,25.30
2018-07-20T16:30:04.432Z,25.60
2018-07-20T16:32:31.928Z,26.70
2018-07-20T16:35:00.152Z,26.50
2018-07-20T16:37:28.070Z,25.50
2018-07-20T16:39:56.827Z,26.10
2018-07-20T16:42:24.684Z,26.60
2018-07-20T16:44:52.482Z,27.10
2018-07-20T16:47:20.055Z,27.40
2018-07-20T16:49:48.407Z,28.70
2018-07-20T16:52:15.926Z,29.80
2018-07-20T16:54:43.664Z,29.90
2018-07-20T16:57:12.635Z,30.90
2018-07-20T17:02:08.378Z,31.80
2018-07-20T17:04:36.303Z,33.10
2018-07-20T17:07:04.405Z,33.80
2018-07-20T17:09:32.339Z,35.20
2018-07-20T17:12:00.892Z,36.50
2018-07-20T17:16:56.851Z,41.20
2018-07-20T17:19:25.041Z,38.40
2018-07-20T17:21:52.558Z,39.70
2018-07-20T17:24:21.254Z,39.70
2018-07-20T17:26:49.088Z,38.40
2018-07-20T17:29:16.928Z,38.40
2018-07-20T17:31:45.191Z,38.70
2018-07-20T17:34:13.097Z,39.30
2018-07-20T17:36:41.351Z,39.70
2018-07-20T17:39:11.220Z,38.80
2018-07-20T17:41:38.735Z,38.50
2018-07-20T17:44:07.212Z,39.60
2018-07-20T17:46:35.117Z,41.70
2018-07-20T17:49:03.108Z,39.40
2018-07-20T17:51:30.958Z,39.90
2018-07-20T17:53:58.462Z,39.70
2018-07-20T17:56:26.492Z,39.80
2018-07-20T17:58:55.262Z,40.80
2018-07-20T18:01:22.819Z,41.30
2018-07-20T18:06:18.579Z,47.60
2018-07-20T18:08:46.499Z,44.40
2018-07-20T18:11:14.315Z,44.40
2018-07-20T18:13:42.197Z,45.30
2018-07-20T18:16:10.156Z,46.20
2018-07-20T18:18:38.564Z,46.50
2018-07-20T18:21:06.457Z,46.20
2018-07-20T18:23:34.338Z,47.60
2018-07-20T18:26:02.269Z,50.30
2018-07-20T18:28:30.157Z,51.10
2018-07-20T18:30:58.493Z,50.40
2018-07-20T18:35:53.887Z,51.10
2018-07-20T18:38:21.450Z,54.50
2018-07-20T18:40:48.987Z,51.70
2018-07-20T18:43:17.150Z,50.80
2018-07-20T18:48:12.532Z,50.20
2018-07-20T18:50:40.051Z,50.20
2018-07-20T18:55:35.635Z,52.70
2018-07-20T18:58:03.539Z,56.90
2018-07-20T19:00:31.035Z,57.70
2018-07-20T19:02:58.965Z,55.40
2018-07-20T19:05:26.874Z,54.10
2018-07-20T19:07:54.444Z,54.80
2018-07-20T19:10:22.557Z,55.30
2018-07-20T19:12:50.344Z,55.70
2018-07-20T19:15:17.986Z,57.80
2018-07-20T19:17:46.328Z,56.20
2018-07-20T19:22:41.988Z,56.10
2018-07-20T19:25:09.840Z,56.30
2018-07-20T19:27:37.739Z,55.80
2018-07-20T19:30:05.557Z,57.90
2018-07-20T19:32:33.081Z,60.80
2018-07-20T19:35:01.292Z,58.30
2018-07-20T19:37:28.788Z,57.50
2018-07-20T19:39:56.313Z,58.50
2018-07-20T19:42:23.830Z,57.90
2018-07-20T19:44:51.685Z,58.10
2018-07-20T19:47:19.219Z,61.50
2018-07-20T19:49:46.831Z,61.50
2018-07-20T19:52:14.805Z,59.20
2018-07-20T19:54:42.443Z,60.10
2018-07-20T19:57:10.476Z,59.70
2018-07-20T19:59:38.324Z,59.90
2018-07-20T20:02:06.285Z,60.20
2018-07-20T20:04:33.772Z,63.50
2018-07-20T20:07:02.341Z,62.70
2018-07-20T20:09:31.004Z,63.30
2018-07-20T20:11:58.816Z,63.60
2018-07-20T20:14:26.940Z,63.40
2018-07-20T20:19:22.645Z,63.60
2018-07-20T20:21:50.144Z,63.10
2018-07-20T20:24:18.065Z,63.80
2018-07-20T20:26:46.002Z,65.50
2018-07-20T20:29:13.973Z,69.00
2018-07-20T20:31:41.939Z,65.40
2018-07-20T20:36:38.424Z,65.30
2018-07-20T20:44:03.572Z,65.80
2018-07-20T20:46:31.344Z,64.60
2018-07-20T20:48:59.683Z,65.90
2018-07-20T20:51:27.520Z,64.60
2018-07-20T20:53:55.211Z,64.50
2018-07-20T20:56:23.219Z,64.70
2018-07-20T20:58:52.100Z,66.80
2018-07-20T21:01:20.155Z,66.10
2018-07-20T21:03:48.090Z,68.30
2018-07-20T21:06:16.364Z,66.90
2018-07-20T21:08:44.704Z,67.40
2018-07-20T21:13:41.117Z,68.10
2018-07-20T21:16:09.725Z,66.90
2018-07-20T21:18:38.843Z,66.50
2018-07-20T21:21:07.295Z,67.40
2018-07-20T21:23:36.120Z,68.20
2018-07-20T21:26:05.124Z,67.70
2018-07-20T21:35:59.170Z,70.00
2018-07-20T21:38:28.219Z,68.60
2018-07-20T21:40:56.801Z,69.30
2018-07-20T21:43:25.005Z,68.70
2018-07-20T21:45:53.525Z,70.90
2018-07-20T21:48:21.183Z,68.70
2018-07-20T21:53:17.738Z,67.30
2018-07-20T21:55:46.300Z,69.00
2018-07-20T21:58:14.765Z,69.20
2018-07-20T22:00:42.544Z,71.00
2018-07-20T22:03:11.312Z,69.90
2018-07-20T22:05:39.075Z,74.20
2018-07-20T22:08:08.303Z,70.30
2018-07-20T22:10:36.944Z,70.00
2018-07-20T22:13:05.347Z,69.80
2018-07-20T22:18:01.632Z,70.30
2018-07-20T22:20:30.616Z,71.20
2018-07-20T22:22:58.979Z,70.70
2018-07-20T22:27:55.466Z,70.80
2018-07-20T22:30:23.747Z,71.20
2018-07-20T22:32:51.464Z,71.00
2018-07-20T22:35:19.706Z,71.80
2018-07-20T22:37:48.451Z,75.00
2018-07-20T22:45:12.958Z,73.00
2018-07-20T22:47:41.492Z,72.90
2018-07-20T22:50:09.318Z,73.50
2018-07-20T22:52:37.119Z,74.10
2018-07-20T22:55:05.651Z,73.40
2018-07-20T22:57:33.958Z,73.20
2018-07-20T23:00:02.597Z,75.30
2018-07-20T23:02:30.823Z,75.30
2018-07-20T23:04:58.591Z,75.00
2018-07-20T23:07:26.827Z,74.90
2018-07-20T23:09:54.868Z,75.00
2018-07-20T23:12:23.253Z,74.80
2018-07-20T23:14:51.762Z,74.00
2018-07-20T23:17:19.475Z,75.20
2018-07-20T23:19:47.774Z,74.00
2018-07-20T23:22:15.672Z,74.60
2018-07-20T23:24:44.632Z,74.60
2018-07-20T23:27:13.254Z,76.30
2018-07-20T23:29:41.805Z,75.40
2018-07-20T23:32:10.432Z,74.50
2018-07-20T23:34:38.285Z,75.60
2018-07-20T23:39:34.324Z,74.50
2018-07-20T23:42:02.080Z,74.50
2018-07-20T23:44:30.970Z,75.60
2018-07-20T23:46:58.820Z,75.70
2018-07-20T23:49:27.306Z,75.40
2018-07-20T23:51:55.188Z,77.50
2018-07-20T23:54:22.711Z,77.40
2018-07-20T23:56:50.223Z,77.50
2018-07-20T23:59:18.141Z,76.00
